Terminal Aerodrome Forecast
Issued by NWS

Home | Current Version | Previous Version | Text Only | Print | Product List | Glossary On
Versions: 1 2 3 4 5 6 7 8 9 10 11 12
510
FTUS46 KSEW 211122
TAFPAE
TAF
KPAE 211122Z 2112/2212 18015G25KT P6SM VCSH SCT020 BKN040
      TEMPO 2112/2116 -SHRA BKN020
     FM211700 28008KT P6SM VCSH SCT030 BKN040
     FM212100 31009KT P6SM VCSH SCT040
     FM220000 32010KT P6SM SCT200=

USA.gov is the U.S. government's official web portal to all federal, state and local government web resources and services.